createdAt,value
2018-09-12T00:01:18.135Z,6.67
2018-09-12T00:03:47.273Z,6.70
2018-09-12T00:06:16.826Z,6.50
2018-09-12T00:08:46.016Z,6.90
2018-09-12T00:11:16.774Z,6.67
2018-09-12T00:13:45.945Z,6.70
2018-09-12T00:16:21.532Z,6.47
2018-09-12T00:18:50.675Z,6.03
2018-09-12T00:21:24.364Z,6.30
2018-09-12T00:23:53.557Z,6.83
2018-09-12T00:26:24.900Z,6.67
2018-09-12T00:28:54.102Z,6.33
2018-09-12T00:31:37.812Z,6.50
2018-09-12T00:34:07.348Z,6.53
2018-09-12T00:36:36.561Z,6.20
2018-09-12T00:39:09.606Z,6.13
2018-09-12T00:41:38.896Z,6.20
2018-09-12T00:44:08.820Z,6.20
2018-09-12T00:46:39.613Z,5.62
2018-09-12T00:49:09.147Z,5.75
2018-09-12T00:51:38.360Z,7.17
2018-09-12T00:54:08.221Z,6.40
2018-09-12T00:56:39.364Z,5.60
2018-09-12T00:59:09.708Z,6.28
2018-09-12T01:01:39.001Z,6.10
2018-09-12T01:04:08.614Z,6.40
2018-09-12T01:06:37.882Z,5.57
2018-09-12T01:09:08.052Z,5.63
2018-09-12T01:11:37.251Z,6.40
2018-09-12T01:14:06.768Z,5.10
2018-09-12T01:16:38.688Z,5.33
2018-09-12T01:19:08.013Z,5.70
2018-09-12T01:21:37.219Z,5.70
2018-09-12T01:24:06.670Z,6.00
2018-09-12T01:26:35.850Z,5.97
2018-09-12T01:29:05.126Z,7.00
2018-09-12T01:31:36.096Z,6.23
2018-09-12T01:34:05.490Z,6.47
2018-09-12T01:36:35.708Z,7.12
2018-09-12T01:39:07.532Z,6.17
2018-09-12T01:41:36.746Z,6.40
2018-09-12T01:44:07.766Z,5.40
2018-09-12T01:46:36.900Z,6.50
2018-09-12T01:49:06.045Z,6.50
2018-09-12T01:51:35.592Z,6.73
2018-09-12T01:54:04.748Z,6.97
2018-09-12T01:56:34.559Z,7.00
2018-09-12T01:59:04.705Z,6.90
2018-09-12T02:27:48.080Z,6.20
2018-09-12T02:30:17.243Z,6.43
2018-09-12T02:32:46.404Z,6.63
2018-09-12T02:35:17.734Z,6.35
2018-09-12T02:37:51.017Z,6.20
2018-09-12T02:40:20.157Z,6.20
2018-09-12T02:56:04.353Z,5.57
2018-09-12T02:58:33.898Z,5.05
2018-09-12T03:01:08.509Z,4.90
2018-09-12T03:03:41.010Z,4.73
2018-09-12T03:06:13.489Z,4.87
2018-09-12T03:08:42.693Z,5.35
2018-09-12T03:11:12.285Z,5.20
2018-09-12T03:13:43.651Z,5.77
2018-09-12T03:16:14.693Z,5.30
2018-09-12T03:18:48.666Z,5.80
2018-09-12T03:21:18.312Z,5.58
2018-09-12T03:23:47.448Z,5.50
2018-09-12T03:26:16.951Z,4.90
2018-09-12T03:28:46.139Z,4.63
2018-09-12T03:31:15.654Z,4.80
2018-09-12T03:33:48.226Z,4.50
2018-09-12T03:36:19.619Z,5.90
2018-09-12T03:38:51.768Z,5.67
2018-09-12T03:41:20.934Z,5.93
2018-09-12T03:43:50.084Z,5.77
2018-09-12T03:46:19.606Z,6.03
2018-09-12T03:48:48.887Z,6.03
2018-09-12T03:51:20.232Z,6.33
2018-09-12T03:53:49.414Z,6.33
2018-09-12T03:56:19.808Z,6.30
2018-09-12T03:58:49.035Z,6.40
2018-09-12T04:01:18.267Z,6.65
2018-09-12T04:03:47.437Z,6.47
2018-09-12T04:06:18.205Z,6.47
2018-09-12T04:08:47.401Z,6.70
2018-09-12T04:11:16.978Z,5.97
2018-09-12T04:13:46.185Z,6.45
2018-09-12T04:16:15.340Z,6.12
2018-09-12T04:18:46.208Z,6.50
2018-09-12T04:21:15.383Z,6.60
2018-09-12T04:23:47.352Z,7.37
2018-09-12T04:26:18.638Z,6.83
2018-09-12T04:28:47.877Z,7.00
2018-09-12T04:31:17.024Z,6.60
2018-09-12T04:33:46.180Z,6.25
2018-09-12T04:36:15.427Z,6.87
2018-09-12T04:38:44.560Z,5.70
2018-09-12T04:41:14.165Z,6.20
2018-09-12T04:43:43.392Z,5.80
2018-09-12T04:46:12.907Z,5.60
2018-09-12T04:48:42.082Z,6.32
2018-09-12T04:51:11.722Z,6.92
2018-09-12T04:53:40.833Z,6.53
2018-09-12T04:56:10.354Z,6.23
2018-09-12T04:58:39.486Z,7.00
2018-09-12T05:01:10.430Z,7.10
2018-09-12T05:03:39.666Z,6.50
2018-09-12T05:06:11.394Z,7.62
2018-09-12T05:08:50.494Z,7.70
2018-09-12T05:11:19.596Z,6.23
2018-09-12T05:13:48.782Z,6.40
2018-09-12T05:16:17.872Z,6.50
2018-09-12T05:20:33.188Z,6.03
2018-09-12T05:23:04.976Z,5.42
2018-09-12T05:25:34.514Z,6.33
2018-09-12T05:28:05.464Z,6.20
2018-09-12T05:30:36.794Z,5.73
2018-09-12T05:46:28.206Z,6.37
2018-09-12T05:49:05.627Z,7.03
2018-09-12T05:51:47.062Z,6.87
2018-09-12T05:54:21.720Z,6.80
2018-09-12T05:56:55.011Z,7.27
2018-09-12T05:59:29.863Z,6.40
2018-09-12T06:02:03.043Z,6.40
2018-09-12T06:04:36.726Z,7.57
2018-09-12T06:07:09.527Z,6.77
2018-09-12T06:09:43.407Z,7.30
2018-09-12T06:12:16.201Z,7.27
2018-09-12T06:14:47.546Z,7.25
2018-09-12T06:17:19.134Z,7.33
2018-09-12T06:19:50.299Z,7.90
2018-09-12T06:22:24.863Z,8.23
2018-09-12T06:24:59.237Z,8.50
2018-09-12T06:27:30.247Z,8.07
2018-09-12T06:29:59.446Z,7.80
2018-09-12T06:32:28.697Z,8.30
2018-09-12T06:35:05.977Z,8.23
2018-09-12T06:37:38.380Z,8.87
2018-09-12T06:42:41.284Z,9.00
2018-09-12T06:45:10.804Z,9.97
2018-09-12T06:47:43.332Z,8.90
2018-09-12T06:50:12.509Z,8.65
2018-09-12T06:52:43.481Z,9.50
2018-09-12T06:55:12.854Z,9.90
2018-09-12T06:57:42.001Z,9.97
2018-09-12T07:00:11.548Z,9.80
2018-09-12T07:02:42.663Z,10.10
2018-09-12T07:05:12.177Z,9.80
2018-09-12T07:07:41.479Z,9.27
2018-09-12T07:10:10.993Z,8.90
2018-09-12T07:12:40.286Z,9.20
2018-09-12T07:15:09.844Z,8.13
2018-09-12T07:17:40.667Z,8.33
2018-09-12T07:20:10.324Z,8.47
2018-09-12T07:22:40.230Z,8.23
2018-09-12T07:25:09.786Z,8.90
2018-09-12T07:27:39.187Z,7.30
2018-09-12T07:30:10.967Z,8.03
2018-09-12T07:32:40.156Z,8.90
2018-09-12T07:35:09.714Z,8.53
2018-09-12T07:37:39.160Z,10.30
2018-09-12T07:40:09.281Z,8.73
2018-09-12T07:42:40.017Z,8.20
2018-09-12T07:45:10.482Z,8.85
2018-09-12T07:47:39.667Z,7.40
2018-09-12T07:50:09.432Z,7.70
2018-09-12T07:52:39.445Z,8.43
2018-09-12T07:55:10.124Z,8.10
2018-09-12T07:57:40.332Z,8.30
2018-09-12T08:00:10.815Z,7.60
2018-09-12T08:02:40.006Z,8.23
2018-09-12T08:05:09.654Z,7.70
2018-09-12T08:07:39.618Z,7.60
2018-09-12T08:10:10.413Z,8.58
2018-09-12T08:12:39.588Z,8.30
2018-09-12T08:15:09.393Z,7.70
2018-09-12T08:22:40.148Z,7.60
2018-09-12T08:25:09.795Z,7.30
2018-09-12T08:27:39.714Z,8.08
2018-09-12T08:30:09.784Z,7.28
2018-09-12T08:32:39.930Z,7.50
2018-09-12T08:35:09.678Z,8.23
2018-09-12T08:37:39.017Z,8.37
2018-09-12T08:40:09.878Z,7.37
2018-09-12T08:42:41.271Z,7.67
2018-09-12T08:45:11.714Z,7.62
2018-09-12T08:47:41.706Z,7.00
2018-09-12T08:50:12.471Z,6.78
2018-09-12T08:52:42.482Z,7.00
2018-09-12T08:55:11.644Z,5.93
2018-09-12T08:57:40.809Z,6.50
2018-09-12T09:00:16.721Z,6.37
2018-09-12T09:02:53.977Z,6.92
2018-09-12T09:05:37.111Z,7.20
2018-09-12T09:08:20.151Z,6.33
2018-09-12T09:10:58.858Z,6.42
2018-09-12T09:16:01.193Z,6.00
2018-09-12T09:18:30.352Z,6.90
2018-09-12T09:20:59.549Z,6.10
2018-09-12T09:23:28.829Z,6.47
2018-09-12T09:26:10.595Z,6.40
2018-09-12T09:28:46.489Z,6.37
2018-09-12T09:31:24.157Z,6.50
2018-09-12T09:33:57.193Z,6.37
2018-09-12T09:36:35.424Z,6.23
2018-09-12T09:39:06.805Z,6.10
2018-09-12T09:41:41.166Z,6.13
2018-09-12T09:44:11.247Z,6.25
2018-09-12T09:46:40.991Z,5.57
2018-09-12T09:49:11.304Z,5.37
2018-09-12T09:51:52.342Z,5.94
2018-09-12T09:54:23.788Z,6.87
2018-09-12T09:56:59.155Z,5.53
2018-09-12T09:59:34.988Z,5.40
2018-09-12T10:05:00.272Z,6.60
2018-09-12T10:07:34.693Z,5.03
2018-09-12T10:10:04.501Z,5.80
2018-09-12T10:12:34.429Z,5.50
2018-09-12T10:15:04.781Z,5.80
2018-09-12T10:17:34.829Z,5.50
2018-09-12T10:20:03.985Z,5.43
2018-09-12T10:22:33.293Z,5.87
2018-09-12T10:25:02.544Z,5.70
2018-09-12T10:27:31.724Z,5.20
2018-09-12T10:30:00.889Z,5.20
2018-09-12T10:32:31.074Z,5.10
2018-09-12T10:35:00.281Z,5.60
2018-09-12T10:37:29.576Z,6.07
2018-09-12T10:39:58.814Z,5.03
2018-09-12T10:42:28.092Z,4.87
2018-09-12T10:44:57.240Z,5.15
2018-09-12T10:47:29.022Z,5.22
2018-09-12T10:49:58.106Z,5.35
2018-09-12T10:52:27.352Z,4.73
2018-09-12T10:54:56.506Z,4.80
2018-09-12T10:57:25.639Z,4.95
2018-09-12T10:59:54.850Z,5.00
2018-09-12T11:02:24.836Z,5.33
2018-09-12T11:04:54.068Z,4.53
2018-09-12T11:07:23.289Z,4.00
2018-09-12T11:09:52.546Z,4.95
2018-09-12T11:12:21.728Z,4.37
2018-09-12T11:15:01.648Z,4.58
2018-09-12T11:17:33.106Z,4.30
2018-09-12T11:20:04.200Z,4.60
2018-09-12T11:22:37.955Z,3.90
2018-09-12T11:25:12.210Z,4.13
2018-09-12T11:27:44.934Z,4.50
2018-09-12T11:32:51.218Z,5.03
2018-09-12T11:35:35.534Z,4.30
2018-09-12T11:38:10.757Z,4.10
2018-09-12T11:40:46.855Z,4.20
2018-09-12T11:46:11.056Z,4.50
2018-09-12T11:48:47.899Z,4.30
2018-09-12T11:51:17.845Z,4.62
2018-09-12T11:53:47.068Z,4.30
2018-09-12T11:56:16.240Z,4.28
2018-09-12T11:58:45.526Z,4.00
2018-09-12T12:01:16.184Z,3.77
2018-09-12T12:03:45.423Z,4.30
2018-09-12T12:06:14.682Z,3.60
2018-09-12T12:08:43.954Z,3.63
2018-09-12T12:11:13.460Z,3.77
2018-09-12T12:13:42.879Z,3.80
2018-09-12T12:16:12.810Z,4.05
2018-09-12T12:18:42.407Z,3.57
2018-09-12T12:21:12.693Z,4.45
2018-09-12T12:23:42.389Z,4.10
2018-09-12T12:26:13.443Z,3.88
2018-09-12T12:28:44.297Z,3.87
2018-09-12T12:31:13.583Z,3.80
2018-09-12T12:33:42.719Z,4.07
2018-09-12T12:36:12.783Z,4.00
2018-09-12T12:38:42.509Z,4.13
2018-09-12T12:41:12.794Z,3.77
2018-09-12T12:43:43.591Z,3.60
2018-09-12T12:46:15.160Z,4.00
2018-09-12T12:48:44.363Z,3.77
2018-09-12T12:51:13.545Z,3.67
2018-09-12T12:53:42.733Z,3.57
2018-09-12T12:56:13.585Z,3.52
2018-09-12T12:58:42.704Z,3.77
2018-09-12T13:01:12.794Z,3.75
2018-09-12T13:03:42.741Z,3.50
2018-09-12T13:06:13.053Z,3.62
2018-09-12T13:08:43.107Z,3.60
2018-09-12T13:11:13.781Z,3.15
2018-09-12T13:13:44.092Z,3.52
2018-09-12T13:16:13.335Z,4.20
2018-09-12T13:18:42.735Z,3.83
2018-09-12T13:21:13.155Z,3.92
2018-09-12T13:23:42.787Z,4.20
2018-09-12T13:26:13.106Z,4.17
2018-09-12T13:28:42.859Z,4.00
2018-09-12T13:31:13.293Z,3.70
2018-09-12T13:33:43.082Z,3.47
2018-09-12T13:36:13.226Z,3.80
2018-09-12T13:38:44.395Z,3.80
2018-09-12T13:41:13.799Z,3.57
2018-09-12T13:43:45.631Z,3.60
2018-09-12T13:46:14.921Z,3.70
2018-09-12T13:48:44.195Z,3.77
2018-09-12T13:51:13.479Z,3.43
2018-09-12T13:53:45.090Z,4.10
2018-09-12T13:56:15.991Z,3.80
2018-09-12T13:58:47.448Z,4.23
2018-09-12T14:01:16.760Z,4.07
2018-09-12T14:03:45.921Z,3.90
2018-09-12T14:06:15.097Z,4.10
2018-09-12T14:08:44.268Z,3.43
2018-09-12T14:11:13.773Z,4.00
2018-09-12T14:13:43.300Z,3.67
2018-09-12T14:21:12.501Z,3.30
2018-09-12T14:23:41.960Z,4.03
2018-09-12T14:26:12.318Z,4.00
2018-09-12T14:28:41.693Z,3.93
2018-09-12T14:31:11.316Z,3.27
2018-09-12T14:33:40.630Z,3.80
2018-09-12T14:36:10.266Z,4.37
2018-09-12T14:38:44.148Z,3.90
2018-09-12T14:41:18.370Z,4.00
2018-09-12T14:43:52.432Z,3.67
2018-09-12T14:46:25.959Z,3.70
2018-09-12T14:49:01.683Z,4.10
2018-09-12T14:51:35.268Z,3.77
2018-09-12T14:54:08.122Z,4.00
2018-09-12T14:56:48.419Z,3.20
2018-09-12T14:59:19.606Z,3.93
2018-09-12T15:25:40.086Z,3.73
2018-09-12T15:28:12.213Z,4.10
2018-09-12T15:30:43.940Z,3.40
2018-09-12T15:38:09.160Z,3.47
2018-09-12T15:40:40.384Z,3.37
2018-09-12T15:43:11.929Z,3.40
2018-09-12T15:45:41.106Z,3.90
2018-09-12T15:51:03.662Z,3.77
2018-09-12T15:53:32.964Z,3.87
2018-09-12T15:56:02.237Z,4.00
2018-09-12T15:58:31.456Z,3.37
2018-09-12T16:01:00.693Z,3.70
2018-09-12T16:03:31.679Z,3.53
2018-09-12T16:06:01.930Z,3.30
2018-09-12T16:08:31.123Z,3.70
2018-09-12T16:11:00.431Z,4.15
2018-09-12T16:13:30.596Z,4.75
2018-09-12T16:15:59.810Z,4.00
2018-09-12T16:18:31.026Z,3.87
2018-09-12T16:21:01.857Z,3.80
2018-09-12T16:23:31.052Z,3.80
2018-09-12T16:26:00.265Z,3.90
2018-09-12T16:28:29.575Z,3.90
2018-09-12T16:30:58.774Z,3.90
2018-09-12T16:33:27.980Z,3.90
2018-09-12T16:35:57.204Z,4.17
2018-09-12T16:38:27.204Z,4.27
2018-09-12T16:40:56.563Z,4.15
2018-09-12T16:43:25.814Z,4.25
2018-09-12T16:45:55.833Z,4.80
2018-09-12T16:48:25.237Z,4.03
2018-09-12T16:50:56.268Z,4.67
2018-09-12T16:53:26.175Z,4.70
2018-09-12T16:55:55.362Z,4.37
2018-09-12T16:58:24.710Z,4.30
2018-09-12T17:00:57.008Z,5.17
2018-09-12T17:03:26.274Z,4.53
2018-09-12T17:05:58.148Z,4.62
2018-09-12T17:08:27.644Z,4.60
2018-09-12T17:10:56.937Z,4.25
2018-09-12T17:13:26.195Z,6.58
2018-09-12T17:15:55.554Z,4.72
2018-09-12T17:18:25.600Z,4.60
2018-09-12T17:20:54.787Z,5.12
2018-09-12T17:23:24.102Z,5.00
2018-09-12T17:25:53.398Z,5.20
2018-09-12T17:28:22.672Z,4.87
2018-09-12T17:30:52.082Z,4.47
2018-09-12T17:33:21.471Z,4.78
2018-09-12T17:35:50.827Z,4.53
2018-09-12T17:38:20.106Z,4.60
2018-09-12T17:40:51.076Z,4.47
2018-09-12T17:43:21.942Z,4.10
2018-09-12T17:45:51.515Z,4.57
2018-09-12T17:48:20.771Z,4.80
2018-09-12T17:50:50.248Z,5.00
2018-09-12T17:53:19.580Z,4.73
2018-09-12T17:55:49.079Z,4.80
2018-09-12T17:58:19.085Z,5.10
2018-09-12T18:00:49.229Z,5.20
2018-09-12T18:03:18.610Z,5.97
2018-09-12T18:05:50.092Z,5.97
2018-09-12T18:08:19.254Z,6.00
2018-09-12T18:10:48.805Z,5.50
2018-09-12T18:13:19.616Z,6.13
2018-09-12T18:15:49.055Z,6.60
2018-09-12T18:18:18.314Z,6.40
2018-09-12T18:20:50.519Z,6.57
2018-09-12T18:23:19.867Z,6.73
2018-09-12T18:25:50.261Z,6.03
2018-09-12T18:28:21.027Z,5.70
2018-09-12T18:30:50.721Z,6.20
2018-09-12T18:33:20.433Z,5.97
2018-09-12T18:35:51.697Z,6.70
2018-09-12T18:38:21.830Z,5.65
2018-09-12T18:40:51.601Z,6.37
2018-09-12T18:43:25.519Z,7.95
2018-09-12T18:45:56.060Z,7.40
2018-09-12T18:48:25.621Z,6.40
2018-09-12T18:50:55.047Z,6.67
2018-09-12T18:53:24.444Z,6.53
2018-09-12T18:55:54.094Z,6.47
2018-09-12T18:58:23.906Z,6.67
2018-09-12T19:00:53.537Z,7.90
2018-09-12T19:03:23.684Z,6.57
2018-09-12T19:05:53.665Z,7.20
2018-09-12T19:08:23.189Z,8.10
2018-09-12T19:10:53.412Z,7.10
2018-09-12T19:13:23.258Z,7.77
2018-09-12T19:15:54.294Z,7.70
2018-09-12T19:18:23.951Z,8.43
2018-09-12T19:20:53.800Z,6.60
2018-09-12T19:23:23.661Z,6.60
2018-09-12T19:25:53.920Z,6.20
2018-09-12T19:28:24.476Z,6.50
2018-09-12T19:30:54.069Z,6.55
2018-09-12T19:33:24.434Z,6.60
2018-09-12T19:35:54.929Z,6.43
2018-09-12T19:38:24.722Z,6.28
2018-09-12T19:40:54.946Z,6.72
2018-09-12T19:43:25.389Z,6.80
2018-09-12T19:45:54.944Z,6.08
2018-09-12T19:48:24.461Z,6.37
2018-09-12T19:50:54.389Z,6.85
2018-09-12T19:53:24.150Z,6.95
2018-09-12T19:55:54.507Z,7.40
2018-09-12T19:58:24.279Z,7.63
2018-09-12T20:00:54.032Z,7.37
2018-09-12T20:03:24.040Z,7.60
2018-09-12T20:05:54.762Z,7.60
2018-09-12T20:08:24.425Z,7.93
2018-09-12T20:10:54.919Z,8.17
2018-09-12T20:13:24.565Z,8.93
2018-09-12T20:15:54.582Z,8.73
2018-09-12T20:18:24.187Z,8.13
2018-09-12T20:20:53.732Z,8.10
2018-09-12T20:23:23.957Z,8.47
2018-09-12T20:25:53.207Z,8.75
2018-09-12T20:28:23.612Z,8.33
2018-09-12T20:30:52.899Z,9.87
2018-09-12T20:33:24.974Z,9.43
2018-09-12T20:35:54.357Z,9.88
2018-09-12T20:38:23.667Z,8.53
2018-09-12T20:40:52.918Z,9.33
2018-09-12T20:43:22.104Z,8.60
2018-09-12T20:45:51.370Z,8.55
2018-09-12T20:48:20.689Z,8.63
2018-09-12T20:50:49.932Z,9.60
2018-09-12T20:53:19.131Z,8.97
2018-09-12T20:55:50.516Z,9.30
2018-09-12T20:58:19.715Z,9.60
2018-09-12T21:00:48.950Z,9.53
2018-09-12T21:03:18.154Z,8.30
2018-09-12T21:05:47.455Z,9.93
2018-09-12T21:08:17.303Z,10.95
2018-09-12T21:10:47.018Z,9.50
2018-09-12T21:39:36.113Z,11.90
2018-09-12T21:42:05.407Z,11.60
2018-09-12T21:44:34.592Z,12.20
2018-09-12T21:47:03.846Z,11.73
2018-09-12T21:49:33.068Z,12.47
2018-09-12T21:52:02.237Z,12.30
2018-09-12T21:54:31.413Z,12.20
2018-09-12T21:57:00.622Z,10.67
2018-09-12T21:59:29.889Z,11.57
2018-09-12T22:01:59.053Z,11.25
2018-09-12T22:04:28.272Z,11.50
2018-09-12T22:06:57.446Z,11.03
2018-09-12T22:09:26.636Z,10.75
2018-09-12T22:11:55.810Z,11.48
2018-09-12T22:14:24.999Z,12.00
2018-09-12T22:16:54.237Z,11.80
2018-09-12T22:19:23.478Z,11.43
2018-09-12T22:21:52.743Z,12.30
2018-09-12T22:24:21.940Z,10.77
2018-09-12T22:26:51.124Z,10.23
2018-09-12T22:29:20.329Z,9.73
2018-09-12T22:31:49.572Z,11.20
2018-09-12T22:34:18.790Z,11.17
2018-09-12T22:36:47.936Z,11.60
2018-09-12T22:44:17.484Z,10.97
2018-09-12T22:46:46.700Z,10.40
2018-09-12T22:49:16.273Z,10.45
2018-09-12T22:51:45.478Z,9.10
2018-09-12T22:54:15.038Z,8.80
2018-09-12T22:56:44.242Z,8.73
2018-09-12T22:59:13.831Z,8.40
2018-09-12T23:01:42.981Z,9.20
2018-09-12T23:04:13.282Z,9.40
2018-09-12T23:06:44.328Z,9.93
2018-09-12T23:09:13.915Z,8.50
2018-09-12T23:11:43.836Z,10.40
2018-09-12T23:14:13.316Z,10.90
2018-09-12T23:16:42.538Z,12.03
2018-09-12T23:19:11.720Z,10.30
2018-09-12T23:21:43.015Z,9.97
2018-09-12T23:24:13.961Z,10.27
2018-09-12T23:26:47.489Z,10.30
2018-09-12T23:29:17.083Z,10.43
2018-09-12T23:31:46.244Z,9.90
2018-09-12T23:34:15.852Z,10.08
2018-09-12T23:36:45.263Z,9.17
2018-09-12T23:39:15.115Z,10.03
2018-09-12T23:41:44.457Z,9.90
2018-09-12T23:44:14.028Z,10.37
2018-09-12T23:46:44.833Z,10.47
2018-09-12T23:49:14.440Z,10.30
2018-09-12T23:51:43.577Z,9.80
2018-09-12T23:54:13.092Z,9.13
2018-09-12T23:56:42.245Z,9.60
2018-09-12T23:59:11.421Z,9.80
